Terminal Aerodrome Forecast
Issued by NWS St Louis, MO

Home | Current Version | Previous Version | Text Only | Print | Product List | Glossary On
Versions: 1 2 3 4 5 6 7 8 9 10 11 12 13 14 15 16 17 18 19 20 21 22 23 24 25 26 27 28 29 30 31
000
FTUS43 KLSX 180600 AAA
TAFSTL
TAF AMD
KSTL 180644Z 1807/1912 VRB04KT 4SM BR BKN020
      TEMPO 1810/1812 2SM BR
     FM181400 VRB03KT P6SM SCT030 SCT250
     FM190000 18005KT P6SM SCT030=

USA.gov is the U.S. government's official web portal to all federal, state and local government web resources and services.